Time;durP1;ratioP1;P1;durP2;ratioP2;P2;SDS_P1;SDS_P2;PMS_P1;PMS_P2;Temp;Humidity;BMP_temperature;BMP_pressure;BME280_temperature;BME280_humidity;BME280_pressure;Samples;Min_cycle;Max_cycle;Signal;HPM_P1;HPM_P2
2022/07/11 00:00:04;;;;;;;0.40;0.40;;;18.20;72.80;;;;;;6278341;22;20111;-74
2022/07/11 00:02:30;;;;;;;0.30;0.30;;;18.20;72.90;;;;;;6305612;22;20030;-74
2022/07/11 00:04:55;;;;;;;0.30;0.30;;;18.20;72.90;;;;;;6305860;22;20011;-73
2022/07/11 00:07:21;;;;;;;0.40;0.40;;;18.20;72.90;;;;;;6279287;22;20017;-74
2022/07/11 00:09:47;;;;;;;0.40;0.30;;;18.10;72.90;;;;;;6306212;22;20011;-74
2022/07/11 00:12:13;;;;;;;0.70;0.40;;;18.20;73.00;;;;;;6253027;22;20007;-74
2022/07/11 00:14:39;;;;;;;0.95;0.30;;;18.20;73.00;;;;;;6305731;22;20007;-74
2022/07/11 00:17:07;;;;;;;0.63;0.30;;;18.20;73.00;;;;;;6278094;22;20003;-74
2022/07/11 00:19:34;;;;;;;0.20;0.20;;;18.10;73.10;;;;;;6278383;22;20338;-74
2022/07/11 00:22:00;;;;;;;0.30;0.30;;;18.20;73.10;;;;;;6305855;22;20008;-74
2022/07/11 00:24:26;;;;;;;2.00;0.60;;;18.20;73.20;;;;;;6278489;22;20007;-74
2022/07/11 00:26:52;;;;;;;0.38;0.32;;;18.20;73.20;;;;;;6277769;22;20419;-73
2022/07/11 00:29:18;;;;;;;0.30;0.30;;;18.20;73.30;;;;;;6252885;22;20091;-73
2022/07/11 00:31:44;;;;;;;0.30;0.30;;;18.20;73.30;;;;;;6306520;22;20365;-73
2022/07/11 00:34:10;;;;;;;0.60;0.30;;;18.20;73.40;;;;;;6306447;22;20007;-74
2022/07/11 00:36:36;;;;;;;0.55;0.35;;;18.20;73.50;;;;;;6305729;22;20086;-73
2022/07/11 00:39:02;;;;;;;0.30;0.30;;;18.10;73.40;;;;;;6305600;22;20076;-74
2022/07/11 00:41:27;;;;;;;0.68;0.50;;;18.20;73.50;;;;;;6279025;22;20031;-74
2022/07/11 00:43:56;;;;;;;0.30;0.30;;;18.10;73.50;;;;;;6306258;22;20015;-74
2022/07/11 00:46:24;;;;;;;0.63;0.47;;;18.10;73.60;;;;;;6306344;22;20083;-74
2022/07/11 00:48:50;;;;;;;1.30;0.47;;;18.10;73.70;;;;;;6278471;22;20007;-74
2022/07/11 00:51:20;;;;;;;1.27;0.50;;;18.00;73.70;;;;;;6278447;22;20007;-74
2022/07/11 00:53:49;;;;;;;2.00;0.50;;;18.00;73.80;;;;;;6306325;22;20073;-74
2022/07/11 00:56:15;;;;;;;0.50;0.50;;;18.00;73.90;;;;;;6306361;22;20097;-74
2022/07/11 00:58:41;;;;;;;0.25;0.25;;;18.00;74.00;;;;;;6275288;22;20004;-74
2022/07/11 01:01:08;;;;;;;0.47;0.40;;;18.10;74.10;;;;;;6278076;22;20020;-74
2022/07/11 01:03:35;;;;;;;0.40;0.40;;;18.00;74.10;;;;;;6305633;22;20003;-74
2022/07/11 01:06:02;;;;;;;0.60;0.40;;;18.00;74.10;;;;;;6298679;22;20034;-74
2022/07/11 01:08:31;;;;;;;0.43;0.40;;;18.00;74.70;;;;;;6305325;22;20374;-74
2022/07/11 01:11:01;;;;;;;0.45;0.25;;;17.90;74.00;;;;;;6305399;22;20016;-74
2022/07/11 01:13:27;;;;;;;0.50;0.30;;;17.90;74.10;;;;;;6279579;22;20439;-74
2022/07/11 01:16:14;;;;;;;0.40;0.40;;;18.00;74.20;;;;;;6306574;22;20003;-74
2022/07/11 01:18:45;;;;;;;0.47;0.30;;;18.00;74.20;;;;;;6307495;22;20007;-74
2022/07/11 01:21:26;;;;;;;1.38;0.30;;;17.90;74.80;;;;;;6306567;22;20011;-74
2022/07/11 01:23:54;;;;;;;0.95;0.40;;;17.90;74.20;;;;;;6277541;22;20396;-74
2022/07/11 01:26:21;;;;;;;0.38;0.32;;;18.00;74.20;;;;;;6307555;22;20023;-74
2022/07/11 01:28:47;;;;;;;0.30;0.30;;;18.00;74.20;;;;;;6307364;22;20007;-74
2022/07/11 01:31:14;;;;;;;0.20;0.20;;;18.00;74.20;;;;;;6307220;22;20025;-74
2022/07/11 01:33:40;;;;;;;0.30;0.25;;;18.00;74.20;;;;;;6279700;22;20066;-74
2022/07/11 01:36:06;;;;;;;0.20;0.20;;;18.00;74.20;;;;;;6307229;22;20015;-73
2022/07/11 01:38:32;;;;;;;0.45;0.30;;;18.10;74.20;;;;;;6306668;22;20007;-74
2022/07/11 01:40:58;;;;;;;0.38;0.30;;;18.00;74.20;;;;;;6307224;22;20020;-74
2022/07/11 01:43:24;;;;;;;0.30;0.30;;;18.00;74.20;;;;;;6307453;22;20007;-74
2022/07/11 01:45:52;;;;;;;0.20;0.20;;;18.00;74.30;;;;;;6306930;22;20443;-74
2022/07/11 01:48:17;;;;;;;0.20;0.20;;;18.10;74.40;;;;;;6306958;22;20007;-74
2022/07/11 01:50:43;;;;;;;0.35;0.30;;;18.00;74.40;;;;;;6306822;22;20018;-74
2022/07/11 01:53:09;;;;;;;0.28;0.28;;;18.00;74.40;;;;;;6306953;22;20439;-74
2022/07/11 01:55:34;;;;;;;0.28;0.28;;;18.10;74.50;;;;;;6306975;22;20038;-74
2022/07/11 01:58:00;;;;;;;0.43;0.30;;;18.00;74.50;;;;;;6306676;22;20015;-74
2022/07/11 02:00:26;;;;;;;0.38;0.30;;;18.00;74.50;;;;;;6306708;22;20015;-74
2022/07/11 02:02:52;;;;;;;0.30;0.30;;;18.00;74.60;;;;;;6306555;22;20011;-74
2022/07/11 02:05:17;;;;;;;0.47;0.40;;;18.00;74.60;;;;;;6278611;22;20018;-74
2022/07/11 02:10:29;;;;;;;0.28;0.28;;;18.00;74.60;;;;;;6306364;22;20072;-74
2022/07/11 02:12:58;;;;;;;0.22;0.22;;;18.00;74.60;;;;;;6306509;22;20004;-74
2022/07/11 02:15:25;;;;;;;0.30;0.30;;;18.00;74.60;;;;;;6270195;22;20444;-74
2022/07/11 02:17:51;;;;;;;0.40;0.20;;;18.00;74.60;;;;;;6306280;22;20037;-74
2022/07/11 02:20:18;;;;;;;0.20;0.20;;;18.00;74.60;;;;;;6306051;22;20011;-74
2022/07/11 02:22:44;;;;;;;0.17;0.17;;;17.90;74.60;;;;;;6306564;22;20018;-74
2022/07/11 02:25:10;;;;;;;0.30;0.20;;;18.00;74.70;;;;;;6306568;22;20396;-74
2022/07/11 02:27:36;;;;;;;0.15;0.15;;;18.00;74.80;;;;;;6306440;22;20065;-74
2022/07/11 02:30:01;;;;;;;0.43;0.30;;;18.00;74.80;;;;;;6306491;22;20015;-74
2022/07/11 02:32:27;;;;;;;0.20;0.20;;;18.00;74.80;;;;;;6276570;22;20003;-74
2022/07/11 02:34:53;;;;;;;0.20;0.20;;;18.00;74.80;;;;;;6306863;22;20031;-74
2022/07/11 02:37:19;;;;;;;0.65;0.30;;;18.00;74.80;;;;;;6306056;22;20439;-74
2022/07/11 02:39:47;;;;;;;0.20;0.20;;;18.00;74.90;;;;;;6306373;22;20011;-74
2022/07/11 02:42:13;;;;;;;0.20;0.20;;;18.00;75.00;;;;;;6306519;22;20014;-74
2022/07/11 02:44:39;;;;;;;0.10;0.10;;;17.90;74.90;;;;;;6278821;22;20011;-74
2022/07/11 02:47:05;;;;;;;0.30;0.30;;;18.00;75.60;;;;;;6278982;22;20102;-74
2022/07/11 02:49:30;;;;;;;0.35;0.30;;;18.00;75.10;;;;;;6306261;22;20403;-74
2022/07/11 02:51:56;;;;;;;0.10;0.10;;;17.90;75.10;;;;;;6306234;22;20019;-74
2022/07/11 02:54:22;;;;;;;0.22;0.22;;;17.90;75.10;;;;;;6306426;22;20004;-74
2022/07/11 02:56:48;;;;;;;0.20;0.20;;;17.90;75.10;;;;;;6306753;22;20007;-74
2022/07/11 02:59:14;;;;;;;0.20;0.20;;;18.00;75.20;;;;;;6306583;22;20019;-74
2022/07/11 03:01:41;;;;;;;0.20;0.20;;;17.90;75.30;;;;;;6305857;22;20109;-74
2022/07/11 03:04:08;;;;;;;0.77;0.28;;;17.90;75.30;;;;;;6306150;22;20015;-74
2022/07/11 03:06:34;;;;;;;0.63;0.20;;;17.90;75.30;;;;;;6306004;22;20083;-74
2022/07/11 03:09:00;;;;;;;0.30;0.30;;;17.90;75.30;;;;;;6306813;22;20038;-74
2022/07/11 03:11:26;;;;;;;0.20;0.20;;;17.90;75.30;;;;;;6307063;22;20010;-74
2022/07/11 03:13:51;;;;;;;0.10;0.10;;;17.90;75.40;;;;;;6307046;22;20058;-74
2022/07/11 03:16:17;;;;;;;0.20;0.20;;;17.90;75.40;;;;;;6306428;22;20088;-74
2022/07/11 03:18:43;;;;;;;0.10;0.10;;;17.90;75.50;;;;;;6306397;22;20007;-74
2022/07/11 03:21:09;;;;;;;0.10;0.10;;;17.80;75.40;;;;;;6306341;22;20090;-74
2022/07/11 03:23:35;;;;;;;0.20;0.20;;;18.00;75.60;;;;;;6306080;22;20081;-74
2022/07/11 03:26:01;;;;;;;0.30;0.30;;;17.80;75.50;;;;;;6253837;22;20007;-74
2022/07/11 03:28:26;;;;;;;0.20;0.20;;;17.80;75.60;;;;;;6306668;22;20007;-74
2022/07/11 03:30:52;;;;;;;0.77;0.40;;;17.80;75.60;;;;;;6305924;22;20051;-74
2022/07/11 03:33:18;;;;;;;0.65;0.32;;;17.80;75.70;;;;;;6253573;22;20003;-74
2022/07/11 03:35:44;;;;;;;0.40;0.30;;;17.80;75.70;;;;;;6306154;22;20378;-74
2022/07/11 03:38:11;;;;;;;0.20;0.20;;;17.70;75.80;;;;;;6306074;22;20088;-74
2022/07/11 03:40:37;;;;;;;0.22;0.20;;;17.80;75.80;;;;;;6306485;22;20008;-74
2022/07/11 03:43:03;;;;;;;0.45;0.30;;;17.70;75.90;;;;;;6306721;22;20375;-74
2022/07/11 03:45:29;;;;;;;0.30;0.20;;;17.70;76.00;;;;;;6278738;22;20015;-74
2022/07/11 03:47:55;;;;;;;0.55;0.30;;;17.70;76.00;;;;;;6306045;22;20012;-74
2022/07/11 03:50:20;;;;;;;0.22;0.22;;;17.70;76.10;;;;;;6306335;22;20008;-74
2022/07/11 03:52:46;;;;;;;0.55;0.30;;;17.70;76.10;;;;;;6275340;22;20004;-74
2022/07/11 03:55:12;;;;;;;0.20;0.20;;;17.60;76.10;;;;;;6305972;22;20007;-74
2022/07/11 03:57:38;;;;;;;0.30;0.30;;;17.70;76.20;;;;;;6305984;22;20007;-74
2022/07/11 04:00:08;;;;;;;0.38;0.32;;;17.60;76.20;;;;;;6306189;22;20068;-74
2022/07/11 04:02:35;;;;;;;0.60;0.30;;;17.60;76.30;;;;;;6306518;22;20086;-74
2022/07/11 04:05:01;;;;;;;0.20;0.20;;;17.60;76.40;;;;;;6278483;22;20446;-74
2022/07/11 04:07:28;;;;;;;0.88;0.30;;;17.60;76.50;;;;;;6306129;22;20011;-74
2022/07/11 04:09:54;;;;;;;0.32;0.30;;;17.50;76.50;;;;;;6276819;22;20012;-74
2022/07/11 04:12:20;;;;;;;0.65;0.20;;;17.50;76.60;;;;;;6306175;22;20010;-74
2022/07/11 04:14:46;;;;;;;0.20;0.20;;;17.50;76.70;;;;;;6306451;22;20007;-74
2022/07/11 04:17:12;;;;;;;0.20;0.20;;;17.50;76.70;;;;;;6306215;22;20008;-74
2022/07/11 04:19:38;;;;;;;0.30;0.30;;;17.50;76.70;;;;;;6306260;22;20035;-74
2022/07/11 04:22:05;;;;;;;0.43;0.30;;;17.50;76.70;;;;;;6278659;22;20007;-74
2022/07/11 04:24:30;;;;;;;0.20;0.20;;;17.50;76.80;;;;;;6279029;22;20094;-74
2022/07/11 04:26:56;;;;;;;0.20;0.20;;;17.50;76.80;;;;;;6278593;22;20066;-75
2022/07/11 04:29:23;;;;;;;0.20;0.20;;;17.50;76.80;;;;;;6278903;22;20050;-74
2022/07/11 04:31:50;;;;;;;0.35;0.30;;;17.50;76.80;;;;;;6253558;22;20082;-74
2022/07/11 04:34:17;;;;;;;1.05;0.38;;;17.50;76.90;;;;;;6306790;22;20305;-74
2022/07/11 04:36:43;;;;;;;0.22;0.22;;;17.50;76.90;;;;;;6306586;22;20008;-74
2022/07/11 04:39:09;;;;;;;0.70;0.35;;;17.50;76.90;;;;;;6306006;22;20334;-74
2022/07/11 04:41:35;;;;;;;0.20;0.20;;;17.50;77.00;;;;;;6278631;22;20030;-74
2022/07/11 04:44:01;;;;;;;0.52;0.25;;;17.40;76.90;;;;;;6305975;22;20347;-74
2022/07/11 04:46:27;;;;;;;0.20;0.20;;;17.50;77.00;;;;;;6306092;22;20015;-74
2022/07/11 04:48:52;;;;;;;0.20;0.20;;;17.50;77.10;;;;;;6296151;22;20011;-74
2022/07/11 04:51:18;;;;;;;0.20;0.20;;;17.50;77.10;;;;;;6254218;22;20063;-74
2022/07/11 04:53:44;;;;;;;0.30;0.30;;;17.60;77.10;;;;;;6307147;22;20004;-74
2022/07/11 04:56:10;;;;;;;0.30;0.30;;;17.50;77.10;;;;;;6242943;23;20432;-74
2022/07/11 04:58:36;;;;;;;0.20;0.20;;;17.50;77.10;;;;;;6243787;23;20016;-74
2022/07/11 05:01:02;;;;;;;0.35;0.20;;;17.60;77.20;;;;;;6242922;23;20396;-74
2022/07/11 05:03:28;;;;;;;0.20;0.20;;;17.50;77.20;;;;;;6243220;23;20090;-74
2022/07/11 05:05:55;;;;;;;0.20;0.20;;;17.50;77.30;;;;;;6218045;23;20420;-74
2022/07/11 05:08:21;;;;;;;0.32;0.28;;;17.50;77.40;;;;;;6216877;23;20028;-74
2022/07/11 05:10:47;;;;;;;0.20;0.20;;;17.50;77.40;;;;;;6242399;23;20016;-74
2022/07/11 05:13:13;;;;;;;0.20;0.20;;;17.60;77.60;;;;;;6242684;23;20018;-74
2022/07/11 05:15:39;;;;;;;0.95;0.30;;;17.50;77.60;;;;;;6243441;22;20189;-74
2022/07/11 05:18:05;;;;;;;0.85;0.38;;;17.50;77.60;;;;;;6242189;22;20007;-74
2022/07/11 05:20:31;;;;;;;0.32;0.25;;;17.50;78.30;;;;;;6242779;22;20395;-74
2022/07/11 05:22:58;;;;;;;0.65;0.30;;;17.50;77.70;;;;;;6217952;23;20012;-75
2022/07/11 05:25:24;;;;;;;0.30;0.30;;;17.60;77.70;;;;;;6242977;22;20054;-75
2022/07/11 05:27:49;;;;;;;0.30;0.30;;;17.60;77.60;;;;;;6266498;22;20470;-75
2022/07/11 05:30:15;;;;;;;0.22;0.22;;;17.70;77.60;;;;;;6307931;22;20007;-75
2022/07/11 05:32:41;;;;;;;0.55;0.40;;;17.70;77.50;;;;;;6307838;22;20030;-75
2022/07/11 05:35:07;;;;;;;0.20;0.20;;;17.60;77.50;;;;;;6307083;22;20451;-75
2022/07/11 05:37:33;;;;;;;0.30;0.20;;;17.60;77.60;;;;;;6308257;22;20003;-75
2022/07/11 05:39:58;;;;;;;0.20;0.20;;;17.70;77.70;;;;;;6290422;22;20073;-75
2022/07/11 05:42:24;;;;;;;0.30;0.30;;;17.60;77.60;;;;;;6307437;22;20011;-75
2022/07/11 05:44:50;;;;;;;0.20;0.20;;;17.70;77.70;;;;;;6307204;22;20033;-75
2022/07/11 05:47:16;;;;;;;0.30;0.30;;;17.60;77.70;;;;;;6306975;22;20034;-75
2022/07/11 05:49:42;;;;;;;0.10;0.10;;;17.70;77.80;;;;;;6306780;22;20339;-76
2022/07/11 05:52:08;;;;;;;0.28;0.28;;;17.70;77.80;;;;;;6307695;22;20090;-76
2022/07/11 05:54:34;;;;;;;0.20;0.20;;;17.70;77.90;;;;;;6308808;22;20003;-76
2022/07/11 05:57:02;;;;;;;0.28;0.20;;;17.70;77.80;;;;;;6308124;22;20026;-74
2022/07/11 05:59:28;;;;;;;0.20;0.20;;;17.70;77.90;;;;;;6307456;22;20377;-75
2022/07/11 06:01:54;;;;;;;0.20;0.20;;;17.70;77.90;;;;;;6306696;22;20019;-75
2022/07/11 06:04:20;;;;;;;0.22;0.22;;;17.80;77.90;;;;;;6310048;22;20085;-75
2022/07/11 06:06:46;;;;;;;0.20;0.20;;;17.90;77.70;;;;;;6281092;22;20060;-75
2022/07/11 06:09:12;;;;;;;0.13;0.13;;;17.90;77.70;;;;;;6283295;22;20411;-75
2022/07/11 06:11:38;;;;;;;0.20;0.20;;;17.90;77.80;;;;;;6285848;22;20014;-76
2022/07/11 06:14:06;;;;;;;0.30;0.30;;;17.80;77.80;;;;;;6312832;22;20059;-75
2022/07/11 06:16:31;;;;;;;0.20;0.20;;;17.90;78.00;;;;;;6311980;22;20007;-75
2022/07/11 06:18:58;;;;;;;0.28;0.28;;;17.90;78.10;;;;;;6307975;22;20049;-74
2022/07/11 06:21:25;;;;;;;0.20;0.20;;;17.80;78.10;;;;;;6309978;22;20004;-76
2022/07/11 06:23:50;;;;;;;0.10;0.10;;;17.80;78.20;;;;;;6309066;22;20003;-74
2022/07/11 06:26:17;;;;;;;0.10;0.10;;;17.80;78.30;;;;;;6279750;22;20007;-74
2022/07/11 06:28:43;;;;;;;0.10;0.10;;;17.80;78.30;;;;;;6307840;22;20003;-74
2022/07/11 06:31:09;;;;;;;0.20;0.20;;;17.80;78.40;;;;;;6304571;22;20014;-74
2022/07/11 06:33:35;;;;;;;0.20;0.20;;;17.90;78.50;;;;;;6280463;22;20011;-74
2022/07/11 06:36:02;;;;;;;0.20;0.20;;;17.90;78.40;;;;;;6280087;22;20011;-74
2022/07/11 06:38:29;;;;;;;0.28;0.20;;;17.90;78.30;;;;;;6307564;22;20007;-74
2022/07/11 06:40:55;;;;;;;0.10;0.10;;;18.00;78.40;;;;;;6306784;22;20007;-74
2022/07/11 06:43:21;;;;;;;0.20;0.20;;;17.90;78.30;;;;;;6307829;22;20090;-74
2022/07/11 06:45:47;;;;;;;0.22;0.20;;;18.00;78.30;;;;;;6253922;22;20046;-74
2022/07/11 06:48:13;;;;;;;0.30;0.30;;;18.10;78.30;;;;;;6306880;22;20096;-74
2022/07/11 06:50:39;;;;;;;0.15;0.15;;;18.20;78.10;;;;;;6307383;22;20015;-74
2022/07/11 06:53:05;;;;;;;0.20;0.20;;;18.30;78.00;;;;;;6304060;22;20003;-74
2022/07/11 06:55:31;;;;;;;0.10;0.10;;;18.30;78.00;;;;;;6307290;22;20503;-74
2022/07/11 06:57:58;;;;;;;0.10;0.10;;;18.30;77.90;;;;;;6280264;22;20007;-74
2022/07/11 07:00:31;;;;;;;0.13;0.13;;;18.40;77.80;;;;;;6277521;22;20434;-75
2022/07/11 07:02:58;;;;;;;0.38;0.20;;;18.50;77.80;;;;;;6277579;22;20039;-76
2022/07/11 07:05:24;;;;;;;0.20;0.20;;;18.60;77.70;;;;;;6279745;22;20007;-75
2022/07/11 07:07:51;;;;;;;0.20;0.20;;;18.60;77.50;;;;;;6306919;22;20015;-75
2022/07/11 07:10:17;;;;;;;0.13;0.13;;;18.70;77.50;;;;;;6277970;22;20022;-75
2022/07/11 07:12:48;;;;;;;0.10;0.10;;;18.60;77.50;;;;;;6274483;22;20058;-75
2022/07/11 07:15:28;;;;;;;0.10;0.10;;;18.70;77.60;;;;;;6279198;22;20009;-75
2022/07/11 07:17:54;;;;;;;0.10;0.10;;;18.80;77.60;;;;;;6306706;22;20082;-76
2022/07/11 07:20:49;;;;;;;0.20;0.20;;;19.00;77.40;;;;;;6224438;22;20049;-75
2022/07/11 07:23:15;;;;;;;0.20;0.20;;;19.00;77.10;;;;;;6242014;22;20020;-75
2022/07/11 07:25:47;;;;;;;0.17;0.17;;;19.30;76.90;;;;;;6222245;22;20116;-75
2022/07/11 07:28:15;;;;;;;0.13;0.13;;;19.40;76.30;;;;;;6223049;22;20012;-74
2022/07/11 07:30:41;;;;;;;0.20;0.20;;;19.50;76.20;;;;;;6274710;22;20139;-76
2022/07/11 07:33:10;;;;;;;0.10;0.10;;;19.50;76.00;;;;;;6277726;22;20010;-76
2022/07/11 07:35:35;;;;;;;0.20;0.20;;;19.60;75.90;;;;;;6274920;22;20448;-76
2022/07/11 07:38:01;;;;;;;0.28;0.10;;;19.70;76.10;;;;;;6247364;22;20099;-76
2022/07/11 07:40:28;;;;;;;0.20;0.20;;;19.60;76.10;;;;;;6274138;22;20050;-76
2022/07/11 07:42:54;;;;;;;0.20;0.20;;;19.60;76.10;;;;;;6276223;22;20164;-76
2022/07/11 07:45:27;;;;;;;0.20;0.20;;;19.70;76.00;;;;;;6278082;22;20039;-77
2022/07/11 07:47:55;;;;;;;0.10;0.10;;;19.70;76.10;;;;;;6249476;22;20015;-76
2022/07/11 07:50:23;;;;;;;0.10;0.10;;;19.60;76.20;;;;;;6306983;22;20049;-75
2022/07/11 07:52:48;;;;;;;0.38;0.20;;;19.80;76.10;;;;;;6306873;22;20375;-76
2022/07/11 07:55:15;;;;;;;0.20;0.20;;;19.80;75.80;;;;;;6306446;22;20007;-75
2022/07/11 07:57:43;;;;;;;0.20;0.20;;;19.90;75.70;;;;;;6279511;22;20007;-75
2022/07/11 08:03:05;;;;;;;0.20;0.20;;;19.90;75.50;;;;;;6285688;22;20041;-76
2022/07/11 08:05:32;;;;;;;0.15;0.15;;;20.00;75.60;;;;;;6315561;22;20026;-75
2022/07/11 08:07:58;;;;;;;0.20;0.20;;;19.90;75.70;;;;;;6260111;22;20017;-76
2022/07/11 08:10:26;;;;;;;0.17;0.17;;;19.80;76.10;;;;;;6223981;22;20071;-76
2022/07/11 08:12:52;;;;;;;0.20;0.20;;;19.80;76.40;;;;;;6250823;22;20340;-76
2022/07/11 08:19:07;;;;;;;0.28;0.20;;;19.80;76.60;;;;;;6180991;23;20013;-76
2022/07/11 08:22:00;;;;;;;0.20;0.20;;;19.80;76.70;;;;;;6130291;23;20032;-76
2022/07/11 08:25:05;;;;;;;0.28;0.28;;;19.90;76.60;;;;;;6149004;23;20101;-76
2022/07/11 08:48:02;;;;;;;0.13;0.13;;;19.80;76.90;;;;;;5613765;25;20037;-76
2022/07/11 08:54:18;;;;;;;0.20;0.20;;;19.90;76.70;;;;;;5635946;25;20029;-76
2022/07/11 08:57:29;;;;;;;0.13;0.13;;;19.90;76.30;;;;;;5701636;25;20013;-76
2022/07/11 08:59:59;;;;;;;0.20;0.20;;;19.90;76.40;;;;;;5685434;25;20021;-76
2022/07/11 09:02:26;;;;;;;0.20;0.20;;;19.80;76.40;;;;;;5703353;25;20020;-75
2022/07/11 09:05:05;;;;;;;0.10;0.10;;;19.80;76.50;;;;;;5750920;24;20023;-74
2022/07/11 09:08:07;;;;;;;0.20;0.20;;;19.80;76.60;;;;;;5806244;24;20019;-74
2022/07/11 09:11:20;;;;;;;0.20;0.20;;;19.80;76.80;;;;;;5821521;24;20030;-76
2022/07/11 09:14:15;;;;;;;0.20;0.20;;;19.60;76.90;;;;;;5827725;24;20031;-76
2022/07/11 09:17:19;;;;;;;0.13;0.13;;;19.60;77.10;;;;;;5795213;24;20027;-75
2022/07/11 09:19:47;;;;;;;0.22;0.22;;;19.50;76.90;;;;;;5776433;24;20032;-76
2022/07/11 09:27:49;;;;;;;0.25;0.25;;;19.80;76.80;;;;;;5733110;24;20107;-76
2022/07/11 09:30:35;;;;;;;0.20;0.20;;;19.80;76.60;;;;;;5736778;24;20028;-76
2022/07/11 09:33:09;;;;;;;0.20;0.20;;;19.90;76.40;;;;;;5758030;24;20024;-76
2022/07/11 09:36:17;;;;;;;0.20;0.20;;;20.00;76.50;;;;;;5801811;24;20019;-76
2022/07/11 09:45:58;;;;;;;0.20;0.20;;;20.20;75.60;;;;;;6001518;23;20045;-76
2022/07/11 09:56:21;;;;;;;0.20;0.20;;;20.10;75.70;;;;;;6182730;23;20519;-74
2022/07/11 10:06:36;;;;;;;0.20;0.20;;;20.00;75.90;;;;;;5951134;24;20108;-75
2022/07/11 10:09:04;;;;;;;0.30;0.30;;;20.00;76.00;;;;;;5930452;24;20531;-75
2022/07/11 10:11:35;;;;;;;0.45;0.30;;;19.90;76.00;;;;;;5928979;24;20020;-76
2022/07/11 10:14:03;;;;;;;0.13;0.13;;;19.90;76.10;;;;;;5952845;24;20152;-74
2022/07/11 10:17:11;;;;;;;0.30;0.30;;;19.90;76.10;;;;;;5929657;24;20023;-74
2022/07/11 10:33:55;;;;;;;0.15;0.15;;;20.70;74.70;;;;;;5867814;24;20200;-75
2022/07/11 10:36:30;;;;;;;0.20;0.20;;;20.90;75.00;;;;;;5981093;23;20479;-75
2022/07/11 10:39:17;;;;;;;0.20;0.20;;;20.90;74.00;;;;;;6038252;23;20016;-76
2022/07/11 10:41:44;;;;;;;0.20;0.20;;;20.90;74.10;;;;;;6093950;23;20093;-75
2022/07/11 10:44:11;;;;;;;0.20;0.20;;;20.90;74.30;;;;;;6089906;23;20023;-75
2022/07/11 10:46:37;;;;;;;0.30;0.30;;;20.90;74.30;;;;;;6066888;23;20022;-75
2022/07/11 10:49:18;;;;;;;0.20;0.20;;;20.80;74.30;;;;;;6042655;23;20030;-76
2022/07/11 10:51:55;;;;;;;0.20;0.20;;;20.90;74.50;;;;;;6042138;23;20011;-75
2022/07/11 10:55:03;;;;;;;0.20;0.20;;;20.90;74.40;;;;;;6068859;23;20010;-76
2022/07/11 10:57:46;;;;;;;0.20;0.20;;;20.90;74.20;;;;;;6048266;23;20010;-76
2022/07/11 11:00:14;;;;;;;0.25;0.25;;;21.00;74.30;;;;;;6064953;23;20014;-75
2022/07/11 11:03:04;;;;;;;0.20;0.20;;;21.00;74.20;;;;;;6162124;23;20074;-75
2022/07/11 11:17:30;;;;;;;0.20;0.20;;;21.40;73.80;;;;;;6045078;23;20055;-75
2022/07/11 11:23:40;;;;;;;0.40;0.40;;;21.80;73.10;;;;;;5813466;24;20092;-76
2022/07/11 11:26:17;;;;;;;0.20;0.20;;;21.90;72.70;;;;;;5851995;24;20013;-76
2022/07/11 11:29:00;;;;;;;0.20;0.20;;;22.10;72.70;;;;;;5895562;24;20018;-75
2022/07/11 11:31:29;;;;;;;0.10;0.10;;;22.10;72.60;;;;;;5897399;24;20026;-74
2022/07/11 11:33:57;;;;;;;0.25;0.25;;;22.10;72.80;;;;;;5897533;24;20082;-75
2022/07/11 11:36:25;;;;;;;0.20;0.20;;;22.10;73.00;;;;;;5885695;24;20026;-76
2022/07/11 11:38:51;;;;;;;0.20;0.20;;;22.10;73.10;;;;;;5901735;24;20070;-75
2022/07/11 11:41:28;;;;;;;0.30;0.30;;;22.10;73.10;;;;;;5925971;24;20073;-76
2022/07/11 11:43:57;;;;;;;0.10;0.10;;;22.00;73.10;;;;;;5934915;23;20026;-75
2022/07/11 11:46:27;;;;;;;0.20;0.20;;;22.10;73.30;;;;;;6038996;23;20051;-75
2022/07/11 11:48:57;;;;;;;0.10;0.10;;;22.00;73.20;;;;;;6093545;23;20020;-76
2022/07/11 11:51:24;;;;;;;0.40;0.30;;;22.20;73.20;;;;;;6213810;23;20079;-77
2022/07/11 11:54:02;;;;;;;0.20;0.20;;;22.30;73.20;;;;;;6167266;23;20016;-75
2022/07/11 11:56:41;;;;;;;0.15;0.15;;;22.30;73.20;;;;;;6178265;23;20015;-76
2022/07/11 12:02:04;;;;;;;0.22;0.22;;;22.30;72.80;;;;;;6179149;23;20440;-77
2022/07/11 12:04:34;;;;;;;0.20;0.20;;;22.30;72.90;;;;;;6243849;22;20016;-77
2022/07/11 12:07:01;;;;;;;0.20;0.20;;;22.30;73.00;;;;;;6193616;23;20069;-75
2022/07/11 12:14:54;;;;;;;0.20;0.20;;;22.20;73.40;;;;;;6220895;23;20012;-76
2022/07/11 12:17:29;;;;;;;0.20;0.20;;;22.30;73.40;;;;;;6193556;23;20401;-75
2022/07/11 12:19:56;;;;;;;0.20;0.20;;;22.30;73.50;;;;;;6253272;22;20048;-75
2022/07/11 12:22:21;;;;;;;0.20;0.20;;;22.30;73.40;;;;;;6281160;22;20057;-75
2022/07/11 12:24:56;;;;;;;0.25;0.25;;;22.40;73.30;;;;;;6254453;22;20015;-75
2022/07/11 12:55:41;;;;;;;0.10;0.10;;;22.60;73.10;;;;;;6263977;22;20125;-73
2022/07/11 12:58:10;;;;;;;0.82;0.20;;;22.30;73.40;;;;;;6252561;23;20069;-73
2022/07/11 13:00:41;;;;;;;0.17;0.17;;;22.10;73.60;;;;;;6251190;23;20031;-72
2022/07/11 13:03:07;;;;;;;0.20;0.20;;;22.10;73.80;;;;;;6164454;23;20390;-73
2022/07/11 13:05:50;;;;;;;0.20;0.20;;;22.10;73.90;;;;;;6189888;23;20419;-72
2022/07/11 13:08:45;;;;;;;0.28;0.20;;;22.10;73.90;;;;;;6164519;23;20076;-73
2022/07/11 13:11:19;;;;;;;0.10;0.10;;;22.10;73.70;;;;;;6164822;23;20004;-72
2022/07/11 13:13:47;;;;;;;0.20;0.20;;;22.10;73.70;;;;;;6190241;23;20040;-73
2022/07/11 13:16:16;;;;;;;0.20;0.20;;;22.10;73.60;;;;;;6189790;23;20019;-73
2022/07/11 13:18:46;;;;;;;0.20;0.20;;;22.10;73.40;;;;;;6165024;23;20143;-73
2022/07/11 13:21:16;;;;;;;0.30;0.30;;;22.20;73.40;;;;;;6139931;23;20396;-71
2022/07/11 13:23:42;;;;;;;0.30;0.30;;;22.20;73.10;;;;;;6139680;23;20094;-72
2022/07/11 13:26:09;;;;;;;0.30;0.30;;;22.30;72.90;;;;;;6189411;23;20016;-71
2022/07/11 13:28:35;;;;;;;0.20;0.20;;;22.30;72.70;;;;;;6139609;23;20020;-72
2022/07/11 13:31:02;;;;;;;0.30;0.30;;;22.40;72.60;;;;;;6189300;23;20009;-71
2022/07/11 13:33:27;;;;;;;0.20;0.20;;;22.40;72.50;;;;;;6158380;23;20016;-71
2022/07/11 13:35:53;;;;;;;0.10;0.10;;;22.40;72.40;;;;;;6250719;23;20018;-72
2022/07/11 13:38:19;;;;;;;0.20;0.20;;;22.40;72.40;;;;;;6250922;23;20344;-72
2022/07/11 13:40:46;;;;;;;0.20;0.20;;;22.50;72.30;;;;;;6250899;23;20008;-72
2022/07/11 13:43:13;;;;;;;1.17;0.20;;;22.60;72.10;;;;;;6252717;23;20016;-72
2022/07/11 13:45:39;;;;;;;0.20;0.20;;;22.70;71.70;;;;;;6252701;22;20087;-72
2022/07/11 13:48:06;;;;;;;0.20;0.20;;;22.80;71.70;;;;;;6250741;23;20432;-72
2022/07/11 13:50:32;;;;;;;0.20;0.20;;;22.90;71.60;;;;;;6252774;23;20008;-71
2022/07/11 13:52:58;;;;;;;0.20;0.20;;;22.80;71.40;;;;;;6252394;23;20015;-72
2022/07/11 13:55:32;;;;;;;0.20;0.20;;;23.00;71.30;;;;;;6247116;23;20000;-72
2022/07/11 13:57:59;;;;;;;0.20;0.20;;;23.00;71.20;;;;;;6245915;22;20083;-72
2022/07/11 14:00:28;;;;;;;0.30;0.30;;;23.00;71.10;;;;;;6245510;22;20035;-72
2022/07/11 14:02:54;;;;;;;0.20;0.20;;;23.10;71.00;;;;;;6245144;22;20024;-72
2022/07/11 14:05:20;;;;;;;0.20;0.20;;;23.00;71.00;;;;;;6245557;22;20513;-73
2022/07/11 14:07:46;;;;;;;0.20;0.20;;;23.00;71.10;;;;;;6243857;23;20008;-73
2022/07/11 14:10:13;;;;;;;0.30;0.30;;;22.90;71.20;;;;;;6243554;23;20522;-72
2022/07/11 14:12:39;;;;;;;0.10;0.10;;;23.00;71.20;;;;;;6245246;22;20074;-72
2022/07/11 14:15:07;;;;;;;0.20;0.20;;;23.00;71.10;;;;;;6243671;23;20466;-72
2022/07/11 14:17:34;;;;;;;0.20;0.20;;;23.10;71.00;;;;;;6243825;23;20008;-72
2022/07/11 14:20:00;;;;;;;0.15;0.15;;;23.20;71.10;;;;;;6243879;23;20012;-72
2022/07/11 14:22:28;;;;;;;0.10;0.10;;;23.20;70.80;;;;;;6243447;23;20352;-72
2022/07/11 14:25:14;;;;;;;0.25;0.25;;;23.30;70.60;;;;;;6243440;23;20014;-70
2022/07/11 14:27:54;;;;;;;0.13;0.13;;;23.40;70.30;;;;;;6184138;23;20019;-71
2022/07/11 14:30:29;;;;;;;0.20;0.20;;;23.40;70.10;;;;;;6095392;23;20018;-70
2022/07/11 14:33:00;;;;;;;0.10;0.10;;;23.50;69.90;;;;;;6045677;23;20014;-71
2022/07/11 14:35:26;;;;;;;0.20;0.20;;;23.50;69.60;;;;;;6069735;23;20018;-71
2022/07/11 14:41:04;;;;;;;0.20;0.20;;;23.70;69.20;;;;;;6048644;23;20022;-72
2022/07/11 14:43:31;;;;;;;0.20;0.20;;;23.80;68.90;;;;;;6069750;23;20018;-72
2022/07/11 14:46:23;;;;;;;0.43;0.20;;;23.90;68.60;;;;;;6070012;23;20101;-72
2022/07/11 14:48:49;;;;;;;0.30;0.30;;;23.80;68.40;;;;;;6095504;23;20014;-71
2022/07/11 14:51:14;;;;;;;0.10;0.10;;;23.70;68.60;;;;;;6093933;23;20018;-71
2022/07/11 14:53:40;;;;;;;0.20;0.20;;;23.70;68.70;;;;;;6094739;23;20342;-71
2022/07/11 14:56:11;;;;;;;0.13;0.13;;;23.50;68.90;;;;;;6070211;23;20022;-71
2022/07/11 14:58:41;;;;;;;0.20;0.20;;;23.60;69.10;;;;;;6105119;23;20025;-71
2022/07/11 15:01:07;;;;;;;0.10;0.10;;;23.60;69.10;;;;;;6153256;23;20016;-71
2022/07/11 15:03:43;;;;;;;0.20;0.20;;;23.60;68.90;;;;;;6212846;23;20023;-71
2022/07/11 15:06:11;;;;;;;0.10;0.10;;;23.70;69.10;;;;;;6212401;23;20016;-71
2022/07/11 15:13:54;;;;;;;0.30;0.20;;;23.80;68.50;;;;;;6244218;23;20440;-71